createdAt,value
2022-08-26T00:02:27.928Z,24.01
2022-08-26T00:07:30.001Z,23.98
2022-08-26T00:12:35.919Z,23.90
2022-08-26T00:17:37.941Z,23.84
2022-08-26T00:22:41.969Z,23.69
2022-08-26T00:27:44.058Z,23.71
2022-08-26T00:32:46.354Z,23.69
2022-08-26T00:37:47.875Z,23.50
2022-08-26T00:42:49.989Z,23.48
2022-08-26T00:48:01.031Z,23.42
2022-08-26T00:53:21.516Z,23.40
2022-08-26T00:58:31.881Z,23.34
2022-08-26T01:03:34.993Z,23.25
2022-08-26T01:08:36.665Z,23.26
2022-08-26T01:13:39.020Z,23.18
2022-08-26T01:18:43.390Z,23.16
2022-08-26T01:23:49.536Z,23.03
2022-08-26T01:28:55.018Z,23.07
2022-08-26T01:34:05.543Z,23.06
2022-08-26T01:39:07.819Z,23.01
2022-08-26T01:44:14.207Z,23.02
2022-08-26T01:49:17.258Z,22.92
2022-08-26T01:54:20.582Z,22.84
2022-08-26T01:59:25.324Z,22.89
2022-08-26T02:04:33.185Z,22.89
2022-08-26T02:09:41.216Z,22.83
2022-08-26T02:14:50.079Z,22.82
2022-08-26T02:19:53.293Z,22.74
2022-08-26T02:24:58.925Z,22.74
2022-08-26T02:30:06.917Z,22.65
2022-08-26T02:35:11.378Z,22.39
2022-08-26T02:40:16.623Z,22.55
2022-08-26T02:45:23.262Z,22.54
2022-08-26T02:50:26.746Z,22.55
2022-08-26T02:55:28.181Z,22.54
2022-08-26T03:00:31.312Z,22.57
2022-08-26T03:05:33.553Z,22.53
2022-08-26T03:10:35.577Z,22.54
2022-08-26T03:15:37.071Z,22.59
2022-08-26T03:20:39.939Z,22.44
2022-08-26T03:25:42.531Z,22.51
2022-08-26T03:30:45.757Z,22.56
2022-08-26T03:35:48.021Z,22.56
2022-08-26T03:40:52.458Z,22.58
2022-08-26T03:45:54.126Z,22.52
2022-08-26T03:50:56.179Z,22.55
2022-08-26T03:55:58.976Z,22.42
2022-08-26T04:01:00.601Z,22.34
2022-08-26T04:06:02.028Z,22.39
2022-08-26T04:11:04.214Z,22.40
2022-08-26T04:16:06.166Z,22.40
2022-08-26T04:21:08.505Z,22.20
2022-08-26T04:26:10.084Z,22.39
2022-08-26T04:31:16.153Z,22.36
2022-08-26T04:36:20.166Z,22.28
2022-08-26T04:41:22.348Z,22.21
2022-08-26T04:46:25.059Z,22.22
2022-08-26T04:51:29.107Z,22.18
2022-08-26T04:56:34.648Z,22.12
2022-08-26T05:01:39.685Z,22.17
2022-08-26T05:06:41.268Z,22.19
2022-08-26T05:11:42.825Z,22.23
2022-08-26T05:16:44.431Z,22.08
2022-08-26T05:21:49.906Z,22.18
2022-08-26T05:26:51.431Z,22.17
2022-08-26T05:31:53.368Z,22.29
2022-08-26T05:36:57.667Z,22.16
2022-08-26T05:41:59.436Z,22.20
2022-08-26T05:47:01.295Z,22.19
2022-08-26T05:52:03.337Z,22.29
2022-08-26T05:57:04.869Z,22.34
2022-08-26T06:02:07.256Z,22.27
2022-08-26T06:07:11.646Z,22.30
2022-08-26T06:12:15.730Z,22.36
2022-08-26T06:17:19.899Z,22.42
2022-08-26T06:22:39.667Z,22.40
2022-08-26T06:27:41.094Z,22.37
2022-08-26T06:32:42.497Z,22.42
2022-08-26T06:37:43.891Z,22.45
2022-08-26T06:42:45.320Z,22.44
2022-08-26T06:47:47.414Z,22.52
2022-08-26T06:52:52.552Z,22.55
2022-08-26T06:57:57.062Z,22.54
2022-08-26T07:02:58.522Z,22.54
2022-08-26T07:08:00.065Z,22.53
2022-08-26T07:13:02.592Z,22.65
2022-08-26T07:18:04.383Z,22.69
2022-08-26T07:23:07.712Z,22.65
2022-08-26T07:28:13.187Z,22.64
2022-08-26T07:33:14.890Z,22.64
2022-08-26T07:38:16.390Z,22.78
2022-08-26T07:43:18.513Z,22.66
2022-08-26T07:48:23.041Z,22.73
2022-08-26T07:53:24.498Z,22.75
2022-08-26T07:58:26.032Z,22.76
2022-08-26T08:03:27.507Z,22.76
2022-08-26T08:08:29.205Z,22.91
2022-08-26T08:13:30.844Z,22.92
2022-08-26T08:18:33.276Z,22.98
2022-08-26T08:23:35.390Z,23.06
2022-08-26T08:28:38.659Z,23.10
2022-08-26T08:33:40.142Z,23.13
2022-08-26T08:38:41.589Z,23.15
2022-08-26T08:43:47.312Z,23.23
2022-08-26T08:48:56.806Z,23.07
2022-08-26T08:54:00.464Z,23.09
2022-08-26T08:59:16.160Z,23.10
2022-08-26T09:04:29.909Z,23.08
2022-08-26T09:09:51.217Z,23.04
2022-08-26T09:14:57.714Z,23.23
2022-08-26T09:20:12.133Z,23.20
2022-08-26T09:25:15.191Z,23.22
2022-08-26T09:30:36.346Z,23.11
2022-08-26T09:35:46.909Z,23.05
2022-08-26T09:40:59.178Z,23.41
2022-08-26T09:46:18.479Z,23.52
2022-08-26T09:51:19.863Z,23.50
2022-08-26T09:56:27.820Z,23.45
2022-08-26T10:01:32.111Z,23.47
2022-08-26T10:06:40.961Z,23.39
2022-08-26T10:12:06.532Z,23.54
2022-08-26T10:17:20.613Z,23.57
2022-08-26T10:22:27.935Z,23.63
2022-08-26T10:27:48.358Z,23.65
2022-08-26T10:33:00.659Z,23.68
2022-08-26T10:38:09.303Z,23.65
2022-08-26T10:43:25.813Z,23.65
2022-08-26T10:48:45.466Z,23.74
2022-08-26T10:54:04.260Z,23.88
2022-08-26T10:59:26.702Z,23.92
2022-08-26T11:04:44.426Z,23.95
2022-08-26T11:09:48.998Z,24.04
2022-08-26T11:14:58.882Z,24.19
2022-08-26T11:20:08.953Z,23.92
2022-08-26T11:25:13.104Z,24.25
2022-08-26T11:30:15.739Z,24.24
2022-08-26T11:35:20.412Z,24.25
2022-08-26T11:40:26.244Z,24.20
2022-08-26T11:45:32.724Z,24.20
2022-08-26T11:50:34.188Z,24.17
2022-08-26T11:55:43.284Z,24.13
2022-08-26T12:01:09.851Z,24.16
2022-08-26T12:06:20.362Z,24.24
2022-08-26T12:11:26.068Z,24.30
2022-08-26T12:16:30.273Z,24.19
2022-08-26T12:21:34.616Z,24.17
2022-08-26T12:26:37.010Z,24.33
2022-08-26T12:31:42.084Z,24.25
2022-08-26T12:36:50.229Z,24.47
2022-08-26T12:41:55.362Z,24.19
2022-08-26T12:47:02.957Z,24.49
2022-08-26T12:52:06.766Z,24.43
2022-08-26T12:57:13.177Z,24.37
2022-08-26T13:02:35.304Z,24.36
2022-08-26T13:07:38.077Z,24.28
2022-08-26T13:12:41.015Z,24.30
2022-08-26T13:17:42.478Z,24.18
2022-08-26T13:22:43.878Z,24.24
2022-08-26T13:27:45.292Z,24.28
2022-08-26T13:32:46.751Z,24.32
2022-08-26T13:37:48.186Z,24.35
2022-08-26T13:42:50.197Z,24.38
2022-08-26T13:47:51.641Z,24.38
2022-08-26T13:52:53.496Z,24.32
2022-08-26T13:57:56.497Z,24.35
2022-08-26T14:02:58.394Z,24.29
2022-08-26T14:08:00.080Z,24.22
2022-08-26T14:13:01.652Z,23.99
2022-08-26T14:18:05.552Z,24.20
2022-08-26T14:23:14.186Z,24.07
2022-08-26T14:28:16.140Z,24.06
2022-08-26T14:33:19.977Z,23.96
2022-08-26T14:38:21.402Z,24.06
2022-08-26T14:43:22.809Z,24.06
2022-08-26T14:48:24.200Z,23.98
2022-08-26T14:53:44.115Z,23.92
2022-08-26T14:58:45.845Z,23.96
2022-08-26T15:03:47.340Z,23.96
2022-08-26T15:08:48.827Z,23.87
2022-08-26T15:13:50.255Z,23.70
2022-08-26T15:18:51.723Z,23.67
2022-08-26T15:23:54.260Z,23.76
2022-08-26T15:28:56.137Z,23.72
2022-08-26T15:33:59.642Z,23.75
2022-08-26T15:39:01.615Z,23.81
2022-08-26T15:44:04.723Z,23.86
2022-08-26T15:49:06.957Z,23.84
2022-08-26T15:54:10.340Z,23.85
2022-08-26T15:59:12.136Z,23.78
2022-08-26T16:04:14.057Z,23.73
2022-08-26T16:09:16.115Z,23.48
2022-08-26T16:14:17.597Z,23.29
2022-08-26T16:19:19.477Z,23.45
2022-08-26T16:24:25.934Z,23.42
2022-08-26T16:29:28.806Z,23.25
2022-08-26T16:34:30.255Z,23.20
2022-08-26T16:39:32.487Z,23.29
2022-08-26T16:44:44.393Z,23.17
2022-08-26T16:49:46.988Z,23.04
2022-08-26T16:54:48.410Z,23.14
2022-08-26T16:59:50.049Z,22.95
2022-08-26T17:04:51.483Z,22.96
2022-08-26T17:09:52.854Z,22.79
2022-08-26T17:14:55.484Z,22.83
2022-08-26T17:19:57.326Z,22.68
2022-08-26T17:24:58.785Z,22.60
2022-08-26T17:30:00.215Z,22.75
2022-08-26T17:35:02.214Z,22.69
2022-08-26T17:40:07.078Z,22.55
2022-08-26T17:45:10.390Z,22.67
2022-08-26T17:50:14.948Z,22.58
2022-08-26T17:55:17.744Z,22.44
2022-08-26T18:00:22.929Z,22.55
2022-08-26T18:05:24.732Z,22.49
2022-08-26T18:10:26.472Z,22.52
2022-08-26T18:15:27.907Z,22.52
2022-08-26T18:20:29.334Z,22.31
2022-08-26T18:25:31.099Z,22.29
2022-08-26T18:30:32.645Z,22.38
2022-08-26T18:35:41.677Z,22.25
2022-08-26T18:40:45.356Z,22.19
2022-08-26T18:45:47.238Z,22.25
2022-08-26T18:50:49.409Z,22.28
2022-08-26T18:55:51.580Z,22.16
2022-08-26T19:00:53.065Z,22.13
2022-08-26T19:05:55.277Z,22.16
2022-08-26T19:10:57.030Z,22.12
2022-08-26T19:15:58.431Z,21.97
2022-08-26T19:20:59.900Z,21.88
2022-08-26T19:26:03.995Z,21.88
2022-08-26T19:31:05.509Z,21.47
2022-08-26T19:36:11.451Z,21.73
2022-08-26T19:41:19.867Z,21.75
2022-08-26T19:46:23.171Z,21.67
2022-08-26T19:51:30.433Z,21.36
2022-08-26T19:56:31.914Z,21.35
2022-08-26T20:01:33.416Z,21.25
2022-08-26T20:06:35.111Z,21.25
2022-08-26T20:11:36.914Z,21.02
2022-08-26T20:16:38.418Z,21.07
2022-08-26T20:21:41.361Z,20.97
2022-08-26T20:26:45.194Z,21.03
2022-08-26T20:31:47.975Z,20.83
2022-08-26T20:36:50.155Z,20.69
2022-08-26T20:41:51.602Z,20.52
2022-08-26T20:46:53.104Z,20.74
2022-08-26T20:51:54.538Z,20.72
2022-08-26T20:56:57.641Z,20.75
2022-08-26T21:01:59.124Z,20.62
2022-08-26T21:07:00.577Z,20.63
2022-08-26T21:12:02.318Z,20.56
2022-08-26T21:17:04.095Z,20.64
2022-08-26T21:22:05.703Z,20.58
2022-08-26T21:27:07.240Z,20.48
2022-08-26T21:32:09.407Z,20.49
2022-08-26T21:37:16.546Z,20.46
2022-08-26T21:42:18.509Z,20.22
2022-08-26T21:47:21.923Z,20.24
2022-08-26T21:52:23.340Z,20.00
2022-08-26T21:57:25.134Z,20.07
2022-08-26T22:02:26.851Z,20.14
2022-08-26T22:07:28.358Z,20.00
2022-08-26T22:12:29.825Z,20.04
2022-08-26T22:17:31.359Z,19.88
2022-08-26T22:22:33.001Z,19.73
2022-08-26T22:27:34.507Z,19.82
2022-08-26T22:32:43.617Z,19.89
2022-08-26T22:37:46.611Z,19.72
2022-08-26T22:42:55.617Z,19.65
2022-08-26T22:48:04.538Z,19.33
2022-08-26T22:53:05.943Z,19.46
2022-08-26T22:58:07.880Z,19.51
2022-08-26T23:03:09.634Z,19.57
2022-08-26T23:08:12.118Z,19.29
2022-08-26T23:13:15.146Z,19.33
2022-08-26T23:18:16.626Z,19.53
2022-08-26T23:23:18.244Z,19.53
2022-08-26T23:28:20.682Z,19.56
2022-08-26T23:33:22.120Z,19.47
2022-08-26T23:38:23.507Z,19.45
2022-08-26T23:43:25.086Z,19.38
2022-08-26T23:48:26.566Z,19.50
2022-08-26T23:53:27.978Z,19.38
2022-08-26T23:58:29.499Z,19.44
